createdAt,value
2023-05-18T00:00:11.147Z,1.07
2023-05-18T00:02:39.318Z,1.20
2023-05-18T00:05:08.897Z,1.40
2023-05-18T00:07:39.420Z,1.37
2023-05-18T00:10:08.910Z,1.40
2023-05-18T00:12:36.946Z,1.20
2023-05-18T00:15:06.464Z,1.33
2023-05-18T00:17:34.430Z,1.33
2023-05-18T00:20:05.072Z,1.30
2023-05-18T00:22:33.057Z,1.40
2023-05-18T00:25:02.500Z,1.60
2023-05-18T00:27:31.491Z,1.70
2023-05-18T00:29:59.424Z,1.50
2023-05-18T00:32:27.646Z,1.37
2023-05-18T00:34:55.702Z,1.37
2023-05-18T00:37:24.184Z,1.37
2023-05-18T00:39:52.301Z,1.30
2023-05-18T00:42:21.877Z,1.60
2023-05-18T00:44:49.846Z,1.90
2023-05-18T00:47:21.748Z,1.43
2023-05-18T00:49:49.941Z,1.33
2023-05-18T00:52:18.697Z,1.40
2023-05-18T00:54:48.305Z,1.17
2023-05-18T00:57:19.086Z,2.07
2023-05-18T00:59:50.031Z,1.50
2023-05-18T01:02:18.356Z,1.43
2023-05-18T01:04:46.392Z,1.63
2023-05-18T01:07:16.710Z,1.37
2023-05-18T01:09:44.786Z,1.80
2023-05-18T01:12:22.095Z,1.73
2023-05-18T01:14:58.800Z,1.50
2023-05-18T01:17:33.516Z,1.23
2023-05-18T01:20:20.305Z,1.50
2023-05-18T01:23:10.351Z,1.53
2023-05-18T01:25:48.604Z,1.80
2023-05-18T01:28:21.469Z,1.80
2023-05-18T01:30:50.891Z,1.60
2023-05-18T01:33:19.404Z,1.57
2023-05-18T01:35:48.436Z,1.40
2023-05-18T01:38:18.980Z,1.53
2023-05-18T01:40:57.672Z,1.30
2023-05-18T01:43:34.236Z,1.77
2023-05-18T01:46:09.922Z,1.33
2023-05-18T01:48:41.291Z,1.47
2023-05-18T01:51:14.791Z,1.57
2023-05-18T01:53:47.340Z,1.50
2023-05-18T01:56:16.024Z,1.40
2023-05-18T01:58:46.241Z,1.60
2023-05-18T02:01:16.432Z,3.33
2023-05-18T02:03:45.110Z,1.57
2023-05-18T02:06:13.298Z,2.23
2023-05-18T02:08:41.760Z,1.57
2023-05-18T02:11:09.718Z,1.53
2023-05-18T02:13:37.765Z,1.47
2023-05-18T02:16:08.209Z,1.60
2023-05-18T02:18:38.632Z,1.60
2023-05-18T02:21:06.586Z,1.70
2023-05-18T02:23:34.873Z,1.60
2023-05-18T02:26:03.113Z,1.60
2023-05-18T02:28:31.312Z,1.53
2023-05-18T02:31:08.226Z,1.60
2023-05-18T02:33:40.038Z,1.70
2023-05-18T02:36:13.641Z,1.60
2023-05-18T02:38:44.516Z,1.90
2023-05-18T02:41:13.275Z,1.60
2023-05-18T02:43:41.209Z,1.53
2023-05-18T02:46:11.148Z,1.77
2023-05-18T02:48:39.173Z,1.70
2023-05-18T02:51:07.379Z,1.60
2023-05-18T02:53:35.792Z,1.57
2023-05-18T02:56:09.925Z,1.77
2023-05-18T02:58:50.616Z,1.47
2023-05-18T03:01:27.123Z,1.50
2023-05-18T03:03:57.815Z,1.70
2023-05-18T03:06:27.010Z,1.83
2023-05-18T03:08:56.763Z,1.53
2023-05-18T03:11:31.657Z,1.53
2023-05-18T03:13:59.800Z,1.50
2023-05-18T03:16:29.194Z,1.53
2023-05-18T03:18:59.011Z,1.67
2023-05-18T03:21:33.778Z,1.50
2023-05-18T03:24:02.049Z,1.63
2023-05-18T03:26:31.908Z,1.50
2023-05-18T03:29:01.324Z,1.70
2023-05-18T03:31:30.698Z,1.47
2023-05-18T03:34:01.227Z,1.70
2023-05-18T03:36:29.647Z,1.67
2023-05-18T03:38:57.748Z,1.90
2023-05-18T03:41:26.390Z,1.70
2023-05-18T03:43:55.733Z,1.63
2023-05-18T03:46:24.267Z,1.67
2023-05-18T03:48:54.624Z,1.37
2023-05-18T03:51:29.661Z,1.90
2023-05-18T03:53:58.125Z,1.50
2023-05-18T03:56:26.318Z,1.60
2023-05-18T03:58:54.226Z,1.33
2023-05-18T04:01:23.693Z,1.73
2023-05-18T04:03:56.479Z,1.87
2023-05-18T04:06:26.927Z,1.77
2023-05-18T04:08:55.159Z,1.70
2023-05-18T04:11:23.494Z,1.90
2023-05-18T04:13:52.120Z,1.40
2023-05-18T04:16:22.017Z,2.17
2023-05-18T04:18:50.537Z,1.63
2023-05-18T04:21:20.272Z,1.43
2023-05-18T04:23:48.498Z,1.30
2023-05-18T04:26:20.186Z,1.50
2023-05-18T04:28:49.917Z,1.47
2023-05-18T04:31:18.497Z,1.50
2023-05-18T04:33:46.630Z,1.67
2023-05-18T04:36:15.032Z,1.47
2023-05-18T04:38:44.360Z,1.60
2023-05-18T04:41:12.379Z,1.70
2023-05-18T04:43:41.698Z,1.80
2023-05-18T04:46:10.130Z,1.60
2023-05-18T04:48:39.137Z,1.63
2023-05-18T04:51:07.205Z,1.80
2023-05-18T04:53:35.360Z,1.80
2023-05-18T04:56:04.852Z,1.67
2023-05-18T04:58:35.739Z,1.60
2023-05-18T05:01:03.689Z,1.53
2023-05-18T05:03:31.950Z,1.80
2023-05-18T05:06:00.856Z,1.90
2023-05-18T05:08:28.766Z,1.73
2023-05-18T05:10:57.172Z,1.90
2023-05-18T05:13:26.537Z,2.30
2023-05-18T05:15:54.868Z,1.90
2023-05-18T05:18:23.006Z,1.70
2023-05-18T05:20:51.651Z,1.80
2023-05-18T05:23:19.854Z,1.87
2023-05-18T05:25:48.225Z,2.20
2023-05-18T05:28:16.283Z,1.97
2023-05-18T05:30:46.006Z,1.90
2023-05-18T05:33:14.254Z,1.97
2023-05-18T05:35:42.314Z,1.93
2023-05-18T05:38:10.601Z,1.97
2023-05-18T05:40:38.553Z,1.70
2023-05-18T05:43:07.068Z,1.70
2023-05-18T05:45:35.082Z,1.60
2023-05-18T05:48:09.227Z,1.83
2023-05-18T05:50:38.295Z,1.47
2023-05-18T05:53:07.134Z,1.90
2023-05-18T05:55:41.285Z,1.70
2023-05-18T05:58:13.196Z,1.80
2023-05-18T06:00:46.533Z,1.67
2023-05-18T06:03:16.822Z,1.70
2023-05-18T06:05:47.255Z,1.87
2023-05-18T06:08:17.021Z,1.70
2023-05-18T06:10:45.580Z,1.63
2023-05-18T06:13:14.376Z,1.93
2023-05-18T06:15:54.654Z,1.47
2023-05-18T06:18:26.048Z,1.63
2023-05-18T06:20:58.356Z,2.00
2023-05-18T06:23:27.677Z,1.60
2023-05-18T06:26:04.550Z,1.50
2023-05-18T06:28:35.973Z,1.63
2023-05-18T06:31:14.276Z,1.67
2023-05-18T06:34:04.939Z,1.90
2023-05-18T06:36:32.929Z,1.43
2023-05-18T06:39:01.083Z,1.57
2023-05-18T06:41:29.032Z,1.40
2023-05-18T06:44:00.287Z,1.43
2023-05-18T06:46:36.297Z,1.10
2023-05-18T06:49:11.504Z,1.00
2023-05-18T06:51:39.686Z,1.40
2023-05-18T06:54:08.530Z,1.33
2023-05-18T06:56:36.532Z,1.30
2023-05-18T06:59:04.768Z,1.27
2023-05-18T07:01:33.788Z,1.10
2023-05-18T07:04:03.719Z,1.30
2023-05-18T07:06:32.964Z,1.00
2023-05-18T07:09:01.422Z,1.20
2023-05-18T07:11:29.758Z,1.37
2023-05-18T07:13:57.932Z,1.50
2023-05-18T07:16:27.667Z,1.30
2023-05-18T07:18:55.983Z,1.43
2023-05-18T07:21:23.949Z,1.50
2023-05-18T07:23:53.299Z,1.47
2023-05-18T07:26:22.406Z,1.60
2023-05-18T07:28:51.318Z,1.10
2023-05-18T07:31:21.802Z,1.20
2023-05-18T07:33:49.992Z,1.10
2023-05-18T07:36:18.018Z,1.20
2023-05-18T07:38:46.102Z,1.40
2023-05-18T07:41:15.937Z,1.10
2023-05-18T07:43:43.902Z,1.50
2023-05-18T07:46:11.956Z,1.50
2023-05-18T07:48:40.949Z,1.43
2023-05-18T07:51:09.314Z,0.93
2023-05-18T07:53:38.104Z,1.77
2023-05-18T07:56:07.397Z,1.20
2023-05-18T07:58:37.311Z,1.30
2023-05-18T08:01:05.584Z,1.10
2023-05-18T08:03:33.611Z,1.17
2023-05-18T08:06:01.992Z,1.27
2023-05-18T08:08:29.984Z,1.30
2023-05-18T08:10:58.893Z,1.40
2023-05-18T08:13:26.864Z,1.23
2023-05-18T08:16:10.553Z,1.27
2023-05-18T08:18:40.226Z,1.20
2023-05-18T08:21:09.886Z,1.20
2023-05-18T08:23:38.595Z,1.40
2023-05-18T08:26:08.371Z,1.30
2023-05-18T08:28:36.568Z,1.53
2023-05-18T08:31:06.400Z,1.47
2023-05-18T08:33:34.340Z,1.43
2023-05-18T08:36:02.425Z,1.90
2023-05-18T08:38:32.225Z,1.37
2023-05-18T08:41:06.170Z,1.10
2023-05-18T08:43:37.823Z,1.33
2023-05-18T08:46:14.475Z,1.30
2023-05-18T08:48:46.943Z,0.97
2023-05-18T08:51:19.638Z,1.00
2023-05-18T08:53:53.164Z,1.27
2023-05-18T08:56:24.640Z,1.50
2023-05-18T08:58:56.233Z,1.30
2023-05-18T09:01:29.147Z,1.60
2023-05-18T09:03:58.662Z,1.13
2023-05-18T09:06:28.523Z,1.37
2023-05-18T09:08:58.461Z,1.27
2023-05-18T09:11:28.477Z,1.37
2023-05-18T09:13:56.615Z,1.30
2023-05-18T09:16:26.006Z,1.10
2023-05-18T09:18:54.923Z,1.45
2023-05-18T09:21:22.996Z,1.35
2023-05-18T09:23:51.846Z,1.02
2023-05-18T09:26:21.897Z,1.20
2023-05-18T09:28:53.665Z,1.25
2023-05-18T09:31:24.879Z,1.20
2023-05-18T09:33:54.464Z,1.17
2023-05-18T09:36:26.331Z,1.20
2023-05-18T09:38:54.839Z,1.38
2023-05-18T09:41:26.602Z,1.30
2023-05-18T09:43:55.474Z,1.88
2023-05-18T09:46:23.402Z,1.08
2023-05-18T09:48:54.130Z,1.30
2023-05-18T09:51:25.293Z,1.20
2023-05-18T09:53:55.636Z,1.40
2023-05-18T09:56:24.624Z,1.40
2023-05-18T09:58:52.682Z,1.85
2023-05-18T10:01:20.963Z,1.30
2023-05-18T10:03:49.783Z,1.25
2023-05-18T10:06:21.283Z,1.30
2023-05-18T10:08:49.839Z,1.38
2023-05-18T10:11:20.168Z,1.38
2023-05-18T10:13:48.316Z,1.30
2023-05-18T10:16:17.234Z,1.10
2023-05-18T10:18:46.499Z,1.15
2023-05-18T10:21:17.234Z,0.77
2023-05-18T10:23:49.121Z,1.10
2023-05-18T10:26:21.696Z,1.33
2023-05-18T10:28:52.536Z,1.40
2023-05-18T10:31:22.780Z,1.00
2023-05-18T10:33:52.868Z,1.10
2023-05-18T10:36:21.968Z,0.80
2023-05-18T10:38:52.547Z,0.80
2023-05-18T10:41:22.812Z,1.05
2023-05-18T10:43:51.964Z,1.55
2023-05-18T10:46:21.462Z,1.40
2023-05-18T10:48:52.108Z,1.13
2023-05-18T10:51:21.418Z,1.40
2023-05-18T10:53:51.594Z,1.13
2023-05-18T10:56:20.950Z,1.20
2023-05-18T10:58:49.433Z,1.30
2023-05-18T11:01:17.926Z,1.25
2023-05-18T11:03:49.833Z,1.00
2023-05-18T11:06:25.996Z,1.10
2023-05-18T11:08:55.249Z,1.40
2023-05-18T11:11:26.411Z,1.23
2023-05-18T11:13:54.602Z,1.00
2023-05-18T11:16:34.942Z,1.17
2023-05-18T11:19:07.085Z,1.20
2023-05-18T11:21:53.180Z,1.23
2023-05-18T11:24:25.061Z,1.20
2023-05-18T11:26:54.936Z,1.23
2023-05-18T11:29:25.864Z,1.45
2023-05-18T11:31:55.664Z,1.13
2023-05-18T11:34:39.125Z,1.30
2023-05-18T11:37:10.152Z,1.05
2023-05-18T11:39:51.733Z,1.17
2023-05-18T11:42:33.416Z,1.30
2023-05-18T11:45:07.734Z,1.60
2023-05-18T11:47:37.754Z,1.10
2023-05-18T11:50:08.756Z,1.48
2023-05-18T11:52:46.781Z,1.67
2023-05-18T11:55:19.106Z,1.20
2023-05-18T11:57:52.153Z,1.10
2023-05-18T12:00:21.610Z,1.25
2023-05-18T12:02:50.351Z,1.20
2023-05-18T12:05:18.849Z,1.38
2023-05-18T12:07:53.567Z,1.98
2023-05-18T12:10:23.914Z,1.13
2023-05-18T12:12:53.745Z,1.52
2023-05-18T12:15:24.081Z,1.20
2023-05-18T12:17:52.523Z,1.25
2023-05-18T12:20:21.973Z,1.02
2023-05-18T12:22:52.272Z,1.27
2023-05-18T12:25:23.204Z,1.02
2023-05-18T12:27:52.758Z,1.30
2023-05-18T12:30:22.006Z,1.38
2023-05-18T12:32:51.948Z,1.08
2023-05-18T12:35:23.544Z,1.10
2023-05-18T12:37:51.813Z,1.17
2023-05-18T12:40:22.575Z,1.38
2023-05-18T12:42:54.471Z,1.10
2023-05-18T12:45:24.588Z,1.40
2023-05-18T12:47:54.489Z,1.38
2023-05-18T12:50:23.489Z,1.17
2023-05-18T12:52:52.161Z,1.02
2023-05-18T12:55:22.851Z,1.23
2023-05-18T12:58:02.165Z,1.40
2023-05-18T13:00:33.836Z,1.17
2023-05-18T13:03:10.254Z,1.60
2023-05-18T13:05:41.775Z,1.25
2023-05-18T13:08:10.769Z,1.08
2023-05-18T13:10:40.793Z,1.00
2023-05-18T13:13:09.650Z,1.15
2023-05-18T13:15:38.986Z,1.20
2023-05-18T13:18:10.241Z,1.00
2023-05-18T13:20:41.497Z,1.25
2023-05-18T13:23:11.554Z,1.20
2023-05-18T13:25:40.887Z,1.40
2023-05-18T13:28:10.574Z,1.08
2023-05-18T13:30:39.723Z,1.40
2023-05-18T13:33:09.057Z,1.10
2023-05-18T13:35:37.335Z,1.13
2023-05-18T13:38:05.472Z,1.00
2023-05-18T13:40:33.771Z,1.17
2023-05-18T13:43:03.063Z,1.10
2023-05-18T13:45:31.794Z,1.30
2023-05-18T13:48:00.361Z,1.27
2023-05-18T13:50:28.502Z,1.33
2023-05-18T13:52:56.738Z,1.40
2023-05-18T13:55:24.808Z,1.25
2023-05-18T13:57:53.100Z,1.40
2023-05-18T14:00:22.797Z,1.10
2023-05-18T14:02:51.131Z,1.15
2023-05-18T14:05:19.324Z,1.20
2023-05-18T14:07:47.384Z,1.27
2023-05-18T14:10:15.583Z,1.50
2023-05-18T14:12:43.549Z,1.33
2023-05-18T14:15:13.977Z,1.23
2023-05-18T14:17:44.432Z,1.15
2023-05-18T14:20:13.888Z,1.30
2023-05-18T14:22:42.395Z,1.30
2023-05-18T14:25:10.662Z,1.38
2023-05-18T14:27:39.113Z,1.50
2023-05-18T14:30:08.341Z,1.75
2023-05-18T14:32:36.834Z,1.17
2023-05-18T14:35:07.080Z,1.30
2023-05-18T14:37:35.167Z,1.20
2023-05-18T14:40:05.883Z,1.20
2023-05-18T14:42:33.981Z,1.20
2023-05-18T14:45:02.117Z,1.45
2023-05-18T14:47:30.095Z,1.13
2023-05-18T14:49:58.600Z,1.13
2023-05-18T14:52:27.836Z,1.40
2023-05-18T14:54:56.122Z,1.00
2023-05-18T14:57:26.525Z,1.27
2023-05-18T14:59:54.967Z,1.50
2023-05-18T15:02:23.189Z,1.42
2023-05-18T15:04:51.374Z,1.50
2023-05-18T15:07:19.563Z,1.40
2023-05-18T15:09:48.790Z,1.20
2023-05-18T15:12:17.800Z,1.30
2023-05-18T15:14:45.741Z,1.27
2023-05-18T15:17:15.049Z,1.42
2023-05-18T15:19:43.037Z,1.23
2023-05-18T15:22:11.115Z,1.80
2023-05-18T15:24:39.126Z,1.30
2023-05-18T15:27:08.916Z,1.17
2023-05-18T15:29:37.256Z,1.20
2023-05-18T15:32:05.863Z,1.42
2023-05-18T15:34:35.089Z,1.42
2023-05-18T15:37:03.459Z,1.27
2023-05-18T15:39:31.410Z,1.20
2023-05-18T15:41:59.647Z,1.50
2023-05-18T15:44:29.672Z,1.55
2023-05-18T15:46:57.862Z,1.63
2023-05-18T15:49:26.224Z,1.10
2023-05-18T15:51:54.118Z,1.40
2023-05-18T15:54:22.378Z,1.70
2023-05-18T15:56:51.068Z,1.23
2023-05-18T15:59:19.196Z,1.08
2023-05-18T16:01:48.700Z,1.83
2023-05-18T16:04:16.902Z,1.15
2023-05-18T16:06:45.049Z,1.40
2023-05-18T16:09:13.401Z,1.23
2023-05-18T16:11:41.287Z,1.58
2023-05-18T16:14:09.337Z,1.30
2023-05-18T16:16:37.303Z,1.40
2023-05-18T16:19:07.585Z,1.33
2023-05-18T16:21:35.662Z,1.10
2023-05-18T16:24:03.492Z,1.45
2023-05-18T16:26:31.620Z,1.30
2023-05-18T16:28:59.513Z,1.00
2023-05-18T16:31:27.789Z,1.10
2023-05-18T16:33:55.813Z,1.75
2023-05-18T16:36:26.109Z,1.20
2023-05-18T16:38:54.943Z,1.60
2023-05-18T16:41:22.945Z,1.08
2023-05-18T16:43:52.247Z,1.30
2023-05-18T16:46:20.783Z,1.48
2023-05-18T16:48:49.329Z,1.50
2023-05-18T16:51:17.248Z,2.00
2023-05-18T16:53:46.559Z,1.20
2023-05-18T16:56:14.894Z,1.30
2023-05-18T16:58:42.862Z,1.03
2023-05-18T17:01:26.275Z,1.27
2023-05-18T17:03:55.953Z,1.00
2023-05-18T17:06:24.581Z,1.17
2023-05-18T17:08:57.766Z,1.20
2023-05-18T17:11:28.059Z,1.40
2023-05-18T17:13:57.296Z,1.27
2023-05-18T17:16:26.615Z,1.13
2023-05-18T17:18:56.420Z,1.23
2023-05-18T17:21:26.578Z,1.30
2023-05-18T17:23:56.235Z,1.17
2023-05-18T17:26:25.293Z,1.20
2023-05-18T17:28:53.693Z,1.27
2023-05-18T17:31:21.603Z,1.30
2023-05-18T17:33:49.787Z,1.40
2023-05-18T17:36:18.092Z,1.40
2023-05-18T17:38:46.913Z,1.30
2023-05-18T17:41:16.638Z,1.37
2023-05-18T17:43:44.559Z,1.10
2023-05-18T17:46:12.993Z,1.37
2023-05-18T17:48:41.189Z,1.10
2023-05-18T17:51:09.125Z,1.87
2023-05-18T17:53:42.107Z,1.27
2023-05-18T17:56:10.895Z,1.20
2023-05-18T17:58:40.451Z,1.07
2023-05-18T18:01:08.939Z,1.37
2023-05-18T18:03:37.736Z,1.20
2023-05-18T18:06:06.564Z,1.07
2023-05-18T18:08:34.569Z,1.20
2023-05-18T18:11:03.161Z,1.30
2023-05-18T18:13:31.220Z,1.40
2023-05-18T18:16:00.687Z,1.10
2023-05-18T18:18:29.173Z,1.47
2023-05-18T18:20:57.060Z,1.50
2023-05-18T18:23:25.327Z,1.23
2023-05-18T18:25:53.294Z,1.27
2023-05-18T18:28:21.343Z,1.10
2023-05-18T18:30:49.901Z,1.50
2023-05-18T18:33:19.806Z,1.20
2023-05-18T18:35:48.209Z,1.20
2023-05-18T18:38:16.176Z,1.50
2023-05-18T18:40:44.715Z,1.10
2023-05-18T18:43:12.678Z,1.10
2023-05-18T18:45:40.901Z,1.10
2023-05-18T18:48:09.688Z,1.10
2023-05-18T18:50:39.059Z,1.80
2023-05-18T18:53:07.145Z,1.60
2023-05-18T18:55:35.109Z,1.17
2023-05-18T18:58:03.564Z,1.57
2023-05-18T19:00:31.647Z,1.10
2023-05-18T19:02:59.663Z,1.20
2023-05-18T19:05:28.553Z,1.30
2023-05-18T19:07:58.002Z,1.20
2023-05-18T19:10:26.473Z,1.53
2023-05-18T19:12:54.671Z,1.00
2023-05-18T19:15:22.851Z,1.03
2023-05-18T19:17:53.709Z,1.37
2023-05-18T19:20:23.198Z,1.17
2023-05-18T19:22:53.132Z,1.40
2023-05-18T19:25:24.558Z,1.70
2023-05-18T19:27:52.865Z,1.60
2023-05-18T19:30:21.951Z,1.53
2023-05-18T19:32:50.314Z,1.37
2023-05-18T19:35:19.949Z,1.10
2023-05-18T19:37:48.347Z,1.20
2023-05-18T19:40:16.809Z,1.10
2023-05-18T19:42:46.111Z,1.57
2023-05-18T19:45:15.705Z,1.00
2023-05-18T19:47:43.706Z,1.00
2023-05-18T19:50:12.341Z,0.77
2023-05-18T19:52:41.299Z,1.10
2023-05-18T19:55:09.277Z,1.00
2023-05-18T19:57:37.419Z,1.40
2023-05-18T20:00:08.665Z,1.00
2023-05-18T20:02:40.402Z,1.63
2023-05-18T20:05:12.355Z,1.40
2023-05-18T20:07:41.014Z,1.50
2023-05-18T20:10:08.973Z,2.27
2023-05-18T20:12:37.055Z,2.03
2023-05-18T20:15:08.723Z,2.07
2023-05-18T20:17:37.120Z,2.10
2023-05-18T20:20:06.112Z,1.63
2023-05-18T20:22:34.309Z,1.70
2023-05-18T20:25:05.315Z,1.33
2023-05-18T20:27:33.350Z,1.20
2023-05-18T20:30:01.381Z,1.47
2023-05-18T20:32:32.619Z,1.40
2023-05-18T20:35:00.733Z,1.33
2023-05-18T20:37:28.866Z,1.77
2023-05-18T20:39:57.294Z,1.50
2023-05-18T20:42:31.047Z,1.90
2023-05-18T20:44:59.428Z,1.93
2023-05-18T20:47:29.862Z,1.67
2023-05-18T20:49:59.366Z,1.17
2023-05-18T20:52:29.174Z,1.67
2023-05-18T20:54:57.165Z,1.70
2023-05-18T20:57:25.294Z,1.27
2023-05-18T20:59:53.176Z,1.10
2023-05-18T21:02:21.161Z,1.40
2023-05-18T21:04:49.487Z,1.20
2023-05-18T21:07:18.938Z,1.37
2023-05-18T21:09:46.987Z,1.20
2023-05-18T21:12:15.186Z,1.17
2023-05-18T21:14:43.034Z,1.27
2023-05-18T21:17:11.465Z,1.20
2023-05-18T21:19:39.313Z,1.33
2023-05-18T21:22:07.464Z,2.73
2023-05-18T21:24:36.765Z,4.00
2023-05-18T21:27:05.537Z,4.47
2023-05-18T21:29:33.525Z,3.93
2023-05-18T21:32:01.835Z,3.03
2023-05-18T21:34:30.035Z,2.70
2023-05-18T21:36:58.342Z,1.93
2023-05-18T21:39:26.386Z,1.80
2023-05-18T21:41:55.843Z,1.30
2023-05-18T21:44:24.249Z,1.17
2023-05-18T21:46:55.056Z,1.27
2023-05-18T21:49:22.930Z,1.20
2023-05-18T21:51:51.405Z,1.07
2023-05-18T21:54:19.530Z,0.93
2023-05-18T21:56:47.496Z,1.17
2023-05-18T21:59:17.651Z,1.33
2023-05-18T22:01:46.435Z,1.00
2023-05-18T22:04:14.337Z,0.97
2023-05-18T22:06:42.568Z,1.17
2023-05-18T22:09:10.481Z,1.40
2023-05-18T22:11:38.819Z,1.20
2023-05-18T22:14:06.811Z,1.00
2023-05-18T22:16:36.150Z,0.97
2023-05-18T22:19:04.511Z,1.00
2023-05-18T22:21:32.468Z,0.97
2023-05-18T22:24:00.661Z,1.20
2023-05-18T22:26:28.602Z,1.53
2023-05-18T22:28:56.860Z,1.13
2023-05-18T22:31:24.839Z,1.20
2023-05-18T22:33:54.305Z,1.50
2023-05-18T22:36:22.878Z,1.10
2023-05-18T22:38:52.316Z,1.37
2023-05-18T22:41:21.815Z,1.17
2023-05-18T22:43:49.934Z,1.30
2023-05-18T22:46:18.095Z,1.13
2023-05-18T22:48:46.343Z,1.33
2023-05-18T22:51:16.615Z,1.10
2023-05-18T22:53:44.544Z,1.17
2023-05-18T22:56:12.871Z,0.97
2023-05-18T22:58:41.021Z,0.97
2023-05-18T23:01:09.235Z,1.03
2023-05-18T23:03:37.296Z,0.93
2023-05-18T23:06:06.642Z,1.40
2023-05-18T23:08:36.942Z,1.67
2023-05-18T23:11:05.850Z,1.80
2023-05-18T23:13:37.622Z,1.30
2023-05-18T23:16:10.210Z,1.47
2023-05-18T23:18:38.989Z,1.17
2023-05-18T23:21:08.967Z,0.90
2023-05-18T23:23:38.388Z,0.70
2023-05-18T23:26:06.608Z,0.87
2023-05-18T23:28:34.504Z,0.97
2023-05-18T23:31:02.565Z,0.90
2023-05-18T23:33:31.242Z,1.10
2023-05-18T23:36:03.877Z,0.70
2023-05-18T23:38:37.867Z,1.13
2023-05-18T23:41:08.059Z,0.90
2023-05-18T23:43:36.748Z,0.80
2023-05-18T23:46:06.678Z,0.90
2023-05-18T23:48:35.112Z,0.90
2023-05-18T23:51:04.163Z,0.60
2023-05-18T23:53:33.248Z,1.10
2023-05-18T23:56:02.620Z,1.00
2023-05-18T23:58:33.234Z,0.93
